createdAt,value
2019-06-01T00:01:55.909Z,3.90
2019-06-01T00:04:27.945Z,4.60
2019-06-01T00:06:59.832Z,4.53
2019-06-01T00:09:31.734Z,3.92
2019-06-01T00:12:03.411Z,4.65
2019-06-01T00:14:35.540Z,3.90
2019-06-01T00:17:07.234Z,3.55
2019-06-01T00:19:39.943Z,4.05
2019-06-01T00:22:11.843Z,4.22
2019-06-01T00:24:44.360Z,4.78
2019-06-01T00:27:16.122Z,4.83
2019-06-01T00:29:49.517Z,4.60
2019-06-01T00:32:21.554Z,4.83
2019-06-01T00:34:53.390Z,4.50
2019-06-01T00:37:25.252Z,4.70
2019-06-01T00:39:57.345Z,4.37
2019-06-01T00:42:29.291Z,4.42
2019-06-01T00:45:01.151Z,4.97
2019-06-01T00:47:33.151Z,5.33
2019-06-01T00:50:08.164Z,5.17
2019-06-01T00:52:39.948Z,5.37
2019-06-01T00:55:11.684Z,9.90
2019-06-01T00:57:43.545Z,10.72
2019-06-01T01:00:15.404Z,14.73
2019-06-01T01:02:48.036Z,14.90
2019-06-01T01:05:20.282Z,13.13
2019-06-01T01:07:53.567Z,14.30
2019-06-01T01:10:25.901Z,14.47
2019-06-01T01:13:06.615Z,15.78
2019-06-01T01:15:39.162Z,15.38
2019-06-01T01:18:11.072Z,16.77
2019-06-01T01:20:42.781Z,15.83
2019-06-01T01:23:14.745Z,14.38
2019-06-01T01:25:46.825Z,13.78
2019-06-01T01:28:18.807Z,14.58
2019-06-01T01:31:06.594Z,13.18
2019-06-01T01:33:25.819Z,13.05
2019-06-01T01:35:57.912Z,12.82
2019-06-01T01:38:29.849Z,12.90
2019-06-01T01:41:01.835Z,12.07
2019-06-01T01:43:33.704Z,11.30
2019-06-01T01:46:05.697Z,11.85
2019-06-01T01:48:37.672Z,11.00
2019-06-01T01:51:09.679Z,11.05
2019-06-01T01:53:41.472Z,11.33
2019-06-01T01:56:13.322Z,10.98
2019-06-01T01:58:45.401Z,11.80
2019-06-01T02:01:22.860Z,12.73
2019-06-01T02:03:51.812Z,12.53
2019-06-01T02:06:24.331Z,12.23
2019-06-01T02:08:57.111Z,11.73
2019-06-01T02:11:29.288Z,12.40
2019-06-01T02:14:02.081Z,10.80
2019-06-01T02:16:35.365Z,11.12
2019-06-01T02:19:07.280Z,11.08
2019-06-01T02:21:39.192Z,11.18
2019-06-01T02:24:11.148Z,10.35
2019-06-01T02:26:42.967Z,10.18
2019-06-01T02:29:14.876Z,10.00
2019-06-01T02:31:46.784Z,10.32
2019-06-01T02:34:18.599Z,10.00
2019-06-01T02:36:50.501Z,10.60
2019-06-01T02:39:22.377Z,10.15
2019-06-01T02:41:56.683Z,10.35
2019-06-01T02:44:28.700Z,10.30
2019-06-01T02:47:01.550Z,9.75
2019-06-01T02:49:33.559Z,9.33
2019-06-01T02:52:06.141Z,9.48
2019-06-01T02:54:37.945Z,9.65
2019-06-01T02:57:09.954Z,9.08
2019-06-01T02:59:41.869Z,9.03
2019-06-01T03:02:15.042Z,9.25
2019-06-01T03:04:47.273Z,9.45
2019-06-01T03:07:19.265Z,10.55
2019-06-01T03:09:51.068Z,8.35
2019-06-01T03:12:22.873Z,10.10
2019-06-01T03:14:54.945Z,10.38
2019-06-01T03:17:26.836Z,7.62
2019-06-01T03:19:59.637Z,7.87
2019-06-01T03:22:33.242Z,10.08
2019-06-01T03:25:05.985Z,8.35
2019-06-01T03:27:38.418Z,8.33
2019-06-01T03:30:14.567Z,7.85
2019-06-01T03:32:46.361Z,9.63
2019-06-01T03:35:18.214Z,7.70
2019-06-01T03:37:50.530Z,7.05
2019-06-01T03:40:23.929Z,7.53
2019-06-01T03:42:56.099Z,7.10
2019-06-01T03:45:28.164Z,8.10
2019-06-01T03:48:00.485Z,7.65
2019-06-01T03:50:32.559Z,7.47
2019-06-01T03:53:04.409Z,7.28
2019-06-01T03:55:36.271Z,7.22
2019-06-01T03:58:09.125Z,7.65
2019-06-01T04:00:41.221Z,7.65
2019-06-01T04:03:13.187Z,9.08
2019-06-01T04:05:45.142Z,8.33
2019-06-01T04:08:17.142Z,6.92
2019-06-01T04:10:48.892Z,9.03
2019-06-01T04:13:20.887Z,9.98
2019-06-01T04:15:52.738Z,9.25
2019-06-01T04:18:24.686Z,7.60
2019-06-01T04:20:56.408Z,9.40
2019-06-01T04:23:28.251Z,9.15
2019-06-01T04:25:59.956Z,7.72
2019-06-01T04:28:31.834Z,7.72
2019-06-01T04:31:04.557Z,8.50
2019-06-01T04:33:36.621Z,16.97
2019-06-01T04:36:08.990Z,8.23
2019-06-01T04:38:41.103Z,8.10
2019-06-01T04:41:14.128Z,11.18
2019-06-01T04:43:46.290Z,12.75
2019-06-01T04:46:18.174Z,11.90
2019-06-01T04:48:50.150Z,11.57
2019-06-01T04:51:21.938Z,12.50
2019-06-01T04:53:53.889Z,11.50
2019-06-01T04:56:26.855Z,11.05
2019-06-01T04:58:58.719Z,10.80
2019-06-01T05:01:30.467Z,9.75
2019-06-01T05:04:02.322Z,10.63
2019-06-01T05:06:35.284Z,11.15
2019-06-01T05:09:09.290Z,10.25
2019-06-01T05:11:41.412Z,9.48
2019-06-01T05:14:13.802Z,8.90
2019-06-01T05:16:45.625Z,8.38
2019-06-01T05:19:17.414Z,8.50
2019-06-01T05:21:49.254Z,8.48
2019-06-01T05:24:21.429Z,8.98
2019-06-01T05:26:53.256Z,9.18
2019-06-01T05:29:25.244Z,8.18
2019-06-01T05:31:57.905Z,8.88
2019-06-01T05:34:29.792Z,8.28
2019-06-01T05:37:01.643Z,7.97
2019-06-01T05:39:33.566Z,7.83
2019-06-01T05:42:05.390Z,7.70
2019-06-01T05:44:37.174Z,8.03
2019-06-01T05:47:10.041Z,7.22
2019-06-01T05:49:42.007Z,7.35
2019-06-01T05:52:14.491Z,6.72
2019-06-01T05:54:46.459Z,7.10
2019-06-01T05:57:19.474Z,6.87
2019-06-01T05:59:51.271Z,7.72
2019-06-01T06:02:23.140Z,7.30
2019-06-01T06:04:54.953Z,11.03
2019-06-01T06:07:26.903Z,7.47
2019-06-01T06:09:58.795Z,9.43
2019-06-01T06:12:30.764Z,11.63
2019-06-01T06:15:02.681Z,7.92
2019-06-01T06:17:34.923Z,6.10
2019-06-01T06:20:06.768Z,6.03
2019-06-01T06:22:41.184Z,7.17
2019-06-01T06:25:14.170Z,5.87
2019-06-01T06:27:46.415Z,6.70
2019-06-01T06:30:19.007Z,12.55
2019-06-01T06:32:50.990Z,23.45
2019-06-01T06:35:23.713Z,15.25
2019-06-01T06:37:55.755Z,12.07
2019-06-01T06:40:27.731Z,12.03
2019-06-01T06:42:59.613Z,11.48
2019-06-01T06:45:31.565Z,13.50
2019-06-01T06:48:03.531Z,6.92
2019-06-01T06:50:35.313Z,9.80
2019-06-01T06:53:07.231Z,7.37
2019-06-01T06:55:40.303Z,7.33
2019-06-01T06:58:12.137Z,10.48
2019-06-01T07:00:43.930Z,11.45
2019-06-01T07:03:16.860Z,9.85
2019-06-01T07:05:48.879Z,7.35
2019-06-01T07:08:21.759Z,7.60
2019-06-01T07:10:53.836Z,7.65
2019-06-01T07:15:59.714Z,6.90
2019-06-01T07:18:31.937Z,6.40
2019-06-01T07:21:03.884Z,8.30
2019-06-01T07:23:35.830Z,6.80
2019-06-01T07:26:07.780Z,6.00
2019-06-01T07:28:40.563Z,5.50
2019-06-01T07:31:12.417Z,5.90
2019-06-01T07:33:44.275Z,5.67
2019-06-01T07:36:16.232Z,4.65
2019-06-01T07:38:48.265Z,4.37
2019-06-01T07:41:20.669Z,4.33
2019-06-01T07:43:52.521Z,5.03
2019-06-01T07:46:24.898Z,4.85
2019-06-01T07:48:56.648Z,5.22
2019-06-01T07:51:29.635Z,6.50
2019-06-01T07:54:01.596Z,5.40
2019-06-01T07:56:33.399Z,4.50
2019-06-01T07:59:05.413Z,5.58
2019-06-01T08:01:37.211Z,4.92
2019-06-01T08:04:09.006Z,4.00
2019-06-01T08:06:46.391Z,3.80
2019-06-01T08:09:14.200Z,4.50
2019-06-01T08:11:45.991Z,5.90
2019-06-01T08:14:17.872Z,9.13
2019-06-01T08:16:49.717Z,7.33
2019-06-01T08:19:22.087Z,5.58
2019-06-01T08:21:54.218Z,5.58
2019-06-01T08:24:26.246Z,4.42
2019-06-01T08:26:58.130Z,4.37
2019-06-01T08:29:30.735Z,4.05
2019-06-01T08:32:02.656Z,60.92
2019-06-01T08:34:34.570Z,8.25
2019-06-01T08:37:06.384Z,4.45
2019-06-01T08:39:38.180Z,4.25
2019-06-01T08:42:10.106Z,4.20
2019-06-01T08:44:41.893Z,3.02
2019-06-01T08:47:13.658Z,3.72
2019-06-01T08:49:45.335Z,3.20
2019-06-01T08:52:17.199Z,3.70
2019-06-01T08:54:48.942Z,3.35
2019-06-01T08:57:20.713Z,3.58
2019-06-01T08:59:52.323Z,5.28
2019-06-01T09:02:24.583Z,3.20
2019-06-01T09:04:56.419Z,3.00
2019-06-01T09:07:28.991Z,3.65
2019-06-01T09:10:00.982Z,2.87
2019-06-01T09:12:33.294Z,2.70
2019-06-01T09:15:07.519Z,2.10
2019-06-01T09:17:39.219Z,2.40
2019-06-01T09:20:10.923Z,2.47
2019-06-01T09:22:42.654Z,1.82
2019-06-01T09:25:14.434Z,3.10
2019-06-01T09:27:46.237Z,1.95
2019-06-01T09:30:17.918Z,2.45
2019-06-01T09:32:49.730Z,2.87
2019-06-01T09:35:21.710Z,2.20
2019-06-01T09:37:53.564Z,2.40
2019-06-01T09:40:27.299Z,2.25
2019-06-01T09:42:58.831Z,2.55
2019-06-01T09:45:30.480Z,6.65
2019-06-01T09:48:02.335Z,3.00
2019-06-01T09:50:35.281Z,1.92
2019-06-01T09:53:07.378Z,2.58
2019-06-01T09:55:40.255Z,2.47
2019-06-01T09:58:15.018Z,3.12
2019-06-01T10:00:48.227Z,2.60
2019-06-01T10:03:19.962Z,2.42
2019-06-01T10:06:01.412Z,14.40
2019-06-01T10:08:25.188Z,4.20
2019-06-01T10:10:57.016Z,4.05
2019-06-01T10:13:30.322Z,2.47
2019-06-01T10:16:02.087Z,2.42
2019-06-01T10:18:35.221Z,3.08
2019-06-01T10:21:23.770Z,2.70
2019-06-01T10:23:55.542Z,2.92
2019-06-01T10:26:28.030Z,4.58
2019-06-01T10:28:59.769Z,25.12
2019-06-01T10:31:32.610Z,2.87
2019-06-01T10:34:04.848Z,2.58
2019-06-01T10:36:37.997Z,2.58
2019-06-01T10:39:09.989Z,2.40
2019-06-01T10:41:41.847Z,2.30
2019-06-01T10:44:13.718Z,2.58
2019-06-01T10:46:45.481Z,3.08
2019-06-01T10:49:17.357Z,3.00
2019-06-01T10:51:49.453Z,2.80
2019-06-01T10:54:21.337Z,3.05
2019-06-01T10:56:53.394Z,2.85
2019-06-01T10:59:25.336Z,2.37
2019-06-01T11:01:57.181Z,2.98
2019-06-01T11:04:28.963Z,2.40
2019-06-01T11:07:00.988Z,3.30
2019-06-01T11:09:33.034Z,3.17
2019-06-01T11:12:04.973Z,4.50
2019-06-01T11:14:37.115Z,2.58
2019-06-01T11:17:09.080Z,3.42
2019-06-01T11:19:42.076Z,3.92
2019-06-01T11:22:14.115Z,3.50
2019-06-01T11:24:45.968Z,3.02
2019-06-01T11:27:17.909Z,3.62
2019-06-01T11:29:51.721Z,2.95
2019-06-01T11:32:23.652Z,2.90
2019-06-01T11:34:55.500Z,2.90
2019-06-01T11:37:27.265Z,2.92
2019-06-01T11:39:59.059Z,3.50
2019-06-01T11:42:31.117Z,2.83
2019-06-01T11:45:03.042Z,4.45
2019-06-01T11:47:34.999Z,9.00
2019-06-01T11:50:07.106Z,2.10
2019-06-01T11:52:41.070Z,2.30
2019-06-01T11:55:13.122Z,2.50
2019-06-01T11:57:45.903Z,2.65
2019-06-01T12:00:17.988Z,2.17
2019-06-01T12:02:49.884Z,1.75
2019-06-01T12:05:21.595Z,1.80
2019-06-01T12:07:53.515Z,2.27
2019-06-01T12:10:25.411Z,2.47
2019-06-01T12:12:57.274Z,1.92
2019-06-01T12:15:29.109Z,2.52
2019-06-01T12:18:00.933Z,2.67
2019-06-01T12:20:32.699Z,2.00
2019-06-01T12:23:04.470Z,1.57
2019-06-01T12:25:36.185Z,2.83
2019-06-01T12:28:08.016Z,1.90
2019-06-01T12:30:39.815Z,1.95
2019-06-01T12:33:11.830Z,1.67
2019-06-01T12:35:44.021Z,2.08
2019-06-01T12:38:15.966Z,1.72
2019-06-01T12:40:47.858Z,1.85
2019-06-01T12:43:19.783Z,1.67
2019-06-01T12:46:05.527Z,2.10
2019-06-01T12:48:25.265Z,1.82
2019-06-01T12:50:57.043Z,1.55
2019-06-01T12:53:28.873Z,2.15
2019-06-01T12:56:00.724Z,1.90
2019-06-01T12:58:32.596Z,1.57
2019-06-01T13:01:04.482Z,1.90
2019-06-01T13:03:36.213Z,1.80
2019-06-01T13:06:08.160Z,1.80
2019-06-01T13:08:40.661Z,2.17
2019-06-01T13:11:14.201Z,1.47
2019-06-01T13:13:47.337Z,2.00
2019-06-01T13:16:19.157Z,1.57
2019-06-01T13:18:51.683Z,1.98
2019-06-01T13:21:27.546Z,1.65
2019-06-01T13:23:57.730Z,2.33
2019-06-01T13:26:29.558Z,3.42
2019-06-01T13:29:01.581Z,1.70
2019-06-01T13:31:34.501Z,2.50
2019-06-01T13:34:06.307Z,1.87
2019-06-01T13:36:38.151Z,2.30
2019-06-01T13:39:10.272Z,1.77
2019-06-01T13:41:43.012Z,2.12
2019-06-01T13:44:14.921Z,2.37
2019-06-01T13:46:49.469Z,2.60
2019-06-01T13:49:21.516Z,2.10
2019-06-01T13:51:54.560Z,1.67
2019-06-01T13:54:26.530Z,2.47
2019-06-01T13:56:58.348Z,1.90
2019-06-01T13:59:30.164Z,2.58
2019-06-01T14:02:02.087Z,2.25
2019-06-01T14:04:34.059Z,2.12
2019-06-01T14:07:05.851Z,1.60
2019-06-01T14:09:37.829Z,2.10
2019-06-01T14:12:09.554Z,2.17
2019-06-01T14:14:41.381Z,1.80
2019-06-01T14:17:13.230Z,2.12
2019-06-01T14:19:45.645Z,2.02
2019-06-01T14:22:17.493Z,2.30
2019-06-01T14:24:59.843Z,2.15
2019-06-01T14:27:22.795Z,1.98
2019-06-01T14:29:54.899Z,2.12
2019-06-01T14:32:26.691Z,2.10
2019-06-01T14:34:58.559Z,2.40
2019-06-01T14:37:30.424Z,2.33
2019-06-01T14:40:02.353Z,2.00
2019-06-01T14:42:34.386Z,2.47
2019-06-01T14:45:07.761Z,2.05
2019-06-01T14:47:39.477Z,2.12
2019-06-01T14:50:12.877Z,1.92
2019-06-01T14:52:44.590Z,2.15
2019-06-01T14:55:16.556Z,1.98
2019-06-01T14:57:49.946Z,2.58
2019-06-01T15:00:23.087Z,2.30
2019-06-01T15:02:54.883Z,2.60
2019-06-01T15:05:26.712Z,2.10
2019-06-01T15:07:59.175Z,1.62
2019-06-01T15:10:31.068Z,2.47
2019-06-01T15:13:03.623Z,2.95
2019-06-01T15:15:35.673Z,2.62
2019-06-01T15:18:10.831Z,2.72
2019-06-01T15:20:42.782Z,3.90
2019-06-01T15:23:14.622Z,3.83
2019-06-01T15:25:46.618Z,4.03
2019-06-01T15:28:18.587Z,4.30
2019-06-01T15:30:50.838Z,4.55
2019-06-01T15:33:22.917Z,4.72
2019-06-01T15:35:55.960Z,4.90
2019-06-01T15:38:28.044Z,6.03
2019-06-01T15:41:00.557Z,6.70
2019-06-01T15:43:32.578Z,5.87
2019-06-01T15:46:04.445Z,5.22
2019-06-01T15:48:36.352Z,5.37
2019-06-01T15:51:08.759Z,5.45
2019-06-01T15:53:40.623Z,5.22
2019-06-01T15:56:12.504Z,5.85
2019-06-01T15:58:52.823Z,5.15
2019-06-01T16:01:18.074Z,7.30
2019-06-01T16:03:49.982Z,7.90
2019-06-01T16:06:21.976Z,8.38
2019-06-01T16:08:55.128Z,9.53
2019-06-01T16:11:27.457Z,9.05
2019-06-01T16:13:59.905Z,8.98
2019-06-01T16:16:31.976Z,8.30
2019-06-01T16:19:07.751Z,6.42
2019-06-01T16:21:37.650Z,6.20
2019-06-01T16:24:09.713Z,6.17
2019-06-01T16:26:41.691Z,4.65
2019-06-01T16:29:13.596Z,5.85
2019-06-01T16:31:45.621Z,5.03
2019-06-01T16:34:17.512Z,5.40
2019-06-01T16:36:49.499Z,4.90
2019-06-01T16:39:21.407Z,5.35
2019-06-01T16:41:53.276Z,5.12
2019-06-01T16:44:25.088Z,6.47
2019-06-01T16:46:57.643Z,8.20
2019-06-01T16:49:29.680Z,6.80
2019-06-01T16:52:03.049Z,6.42
2019-06-01T16:54:35.234Z,5.70
2019-06-01T16:57:07.441Z,5.50
2019-06-01T16:59:39.401Z,5.42
2019-06-01T17:02:11.468Z,6.25
2019-06-01T17:04:43.360Z,6.17
2019-06-01T17:07:15.366Z,6.37
2019-06-01T17:09:47.253Z,5.20
2019-06-01T17:12:19.109Z,4.37
2019-06-01T17:14:51.020Z,4.62
2019-06-01T17:17:23.147Z,4.90
2019-06-01T17:19:55.356Z,4.70
2019-06-01T17:22:28.247Z,4.95
2019-06-01T17:25:00.149Z,4.60
2019-06-01T17:27:32.246Z,5.00
2019-06-01T17:30:09.290Z,4.65
2019-06-01T17:32:38.584Z,4.80
2019-06-01T17:35:10.391Z,4.83
2019-06-01T17:37:42.366Z,4.78
2019-06-01T17:40:14.313Z,5.00
2019-06-01T17:42:46.336Z,4.25
2019-06-01T17:45:18.141Z,4.60
2019-06-01T17:47:50.019Z,4.40
2019-06-01T17:50:22.542Z,4.62
2019-06-01T17:52:54.624Z,4.08
2019-06-01T17:55:29.420Z,4.72
2019-06-01T17:58:01.601Z,5.67
2019-06-01T18:00:33.828Z,5.17
2019-06-01T18:03:10.089Z,4.53
2019-06-01T18:05:43.475Z,5.00
2019-06-01T18:08:15.511Z,5.12
2019-06-01T18:10:54.660Z,4.87
2019-06-01T18:13:21.203Z,5.47
2019-06-01T18:15:53.150Z,5.12
2019-06-01T18:18:25.295Z,5.40
2019-06-01T18:20:57.183Z,5.72
2019-06-01T18:23:29.294Z,5.83
2019-06-01T18:26:02.432Z,6.10
2019-06-01T18:28:34.840Z,5.40
2019-06-01T18:31:06.813Z,6.70
2019-06-01T18:33:38.736Z,6.95
2019-06-01T18:36:11.620Z,7.62
2019-06-01T18:38:43.775Z,11.80
2019-06-01T18:41:19.477Z,10.53
2019-06-01T18:43:49.383Z,8.68
2019-06-01T18:46:21.279Z,8.05
2019-06-01T18:48:53.368Z,10.48
2019-06-01T18:51:25.428Z,10.90
2019-06-01T18:53:57.375Z,7.92
2019-06-01T18:56:29.348Z,9.38
2019-06-01T18:59:04.868Z,8.85
2019-06-01T19:01:36.645Z,8.65
2019-06-01T19:04:09.702Z,7.45
2019-06-01T19:06:41.927Z,9.10
2019-06-01T19:09:13.872Z,10.45
2019-06-01T19:11:45.856Z,8.90
2019-06-01T19:14:17.819Z,10.00
2019-06-01T19:16:49.705Z,11.15
2019-06-01T19:19:21.700Z,10.32
2019-06-01T19:21:54.687Z,11.28
2019-06-01T19:24:26.635Z,10.53
2019-06-01T19:26:59.284Z,10.32
2019-06-01T19:29:31.287Z,10.43
2019-06-01T19:32:03.258Z,10.58
2019-06-01T19:34:36.373Z,9.65
2019-06-01T19:37:08.972Z,9.25
2019-06-01T19:39:41.285Z,9.93
2019-06-01T19:42:15.526Z,9.20
2019-06-01T19:44:47.880Z,9.05
2019-06-01T19:47:19.889Z,7.70
2019-06-01T19:49:51.784Z,9.08
2019-06-01T19:52:23.885Z,8.58
2019-06-01T19:54:55.868Z,8.85
2019-06-01T19:57:27.925Z,8.25
2019-06-01T19:59:59.883Z,12.23
2019-06-01T20:02:34.266Z,12.20
2019-06-01T20:05:06.476Z,11.22
2019-06-01T20:07:38.535Z,14.70
2019-06-01T20:10:10.723Z,10.78
2019-06-01T20:12:42.686Z,12.18
2019-06-01T20:15:15.515Z,7.15
2019-06-01T20:17:47.740Z,4.95
2019-06-01T20:20:19.824Z,4.05
2019-06-01T20:22:52.087Z,4.05
2019-06-01T20:25:24.040Z,3.05
2019-06-01T20:27:56.003Z,3.75
2019-06-01T20:30:28.151Z,3.08
2019-06-01T20:33:00.261Z,3.12
2019-06-01T20:35:32.211Z,2.80
2019-06-01T20:38:04.273Z,3.22
2019-06-01T20:40:36.314Z,3.47
2019-06-01T20:43:08.339Z,2.70
2019-06-01T20:45:40.364Z,2.42
2019-06-01T20:48:13.338Z,2.92
2019-06-01T20:50:45.950Z,2.67
2019-06-01T20:53:18.940Z,2.72
2019-06-01T20:55:50.894Z,3.02
2019-06-01T20:58:23.796Z,2.87
2019-06-01T21:00:56.524Z,3.08
2019-06-01T21:03:28.423Z,2.72
2019-06-01T21:06:00.388Z,3.30
2019-06-01T21:08:32.491Z,3.50
2019-06-01T21:11:04.386Z,3.52
2019-06-01T21:13:36.169Z,4.08
2019-06-01T21:16:08.045Z,3.45
2019-06-01T21:18:39.987Z,3.87
2019-06-01T21:21:14.202Z,4.10
2019-06-01T21:23:46.369Z,3.27
2019-06-01T21:26:18.925Z,3.20
2019-06-01T21:28:50.918Z,3.72
2019-06-01T21:31:23.201Z,3.15
2019-06-01T21:33:55.237Z,5.10
2019-06-01T21:36:27.146Z,3.60
2019-06-01T21:38:59.063Z,3.62
2019-06-01T21:41:30.974Z,3.17
2019-06-01T21:44:02.847Z,2.85
2019-06-01T21:46:34.691Z,3.72
2019-06-01T21:49:06.558Z,3.08
2019-06-01T21:51:38.384Z,2.50
2019-06-01T21:54:10.178Z,3.20
2019-06-01T21:56:42.471Z,3.00
2019-06-01T21:59:14.276Z,2.90
2019-06-01T22:01:46.184Z,3.25
2019-06-01T22:04:19.082Z,2.70
2019-06-01T22:06:51.090Z,2.80
2019-06-01T22:09:23.367Z,2.65
2019-06-01T22:11:55.508Z,2.47
2019-06-01T22:14:27.744Z,2.55
2019-06-01T22:16:59.747Z,2.40
2019-06-01T22:19:31.618Z,2.37
2019-06-01T22:22:03.447Z,2.60
2019-06-01T22:24:35.343Z,2.33
2019-06-01T22:27:07.156Z,2.83
2019-06-01T22:29:39.038Z,1.98
2019-06-01T22:32:10.867Z,2.40
2019-06-01T22:34:42.746Z,2.72
2019-06-01T22:37:14.608Z,2.00
2019-06-01T22:39:46.400Z,2.52
2019-06-01T22:42:18.275Z,2.20
2019-06-01T22:44:50.284Z,2.52
2019-06-01T22:47:22.545Z,2.40
2019-06-01T22:49:54.655Z,2.67
2019-06-01T22:52:27.068Z,2.70
2019-06-01T22:54:59.069Z,2.87
2019-06-01T22:57:31.043Z,2.80
2019-06-01T23:00:02.887Z,2.52
2019-06-01T23:02:34.621Z,2.22
2019-06-01T23:05:06.532Z,2.92
2019-06-01T23:07:38.578Z,2.90
2019-06-01T23:10:10.711Z,2.60
2019-06-01T23:12:42.564Z,4.50
2019-06-01T23:15:14.340Z,2.52
2019-06-01T23:17:46.228Z,2.47
2019-06-01T23:20:17.893Z,2.33
2019-06-01T23:22:49.870Z,2.00
2019-06-01T23:25:22.551Z,3.20
2019-06-01T23:27:54.689Z,2.75
2019-06-01T23:30:26.483Z,2.42
2019-06-01T23:32:58.411Z,2.52
2019-06-01T23:35:30.706Z,2.70
2019-06-01T23:38:02.615Z,2.70
2019-06-01T23:40:34.334Z,2.77
2019-06-01T23:43:07.746Z,2.40
2019-06-01T23:45:39.510Z,2.80
2019-06-01T23:48:11.436Z,2.50
2019-06-01T23:50:43.260Z,2.90
2019-06-01T23:53:15.108Z,2.60
2019-06-01T23:55:46.882Z,2.80
2019-06-01T23:58:18.948Z,2.83
